Time;durP1;ratioP1;P1;durP2;ratioP2;P2;SDS_P1;SDS_P2;PMS_P1;PMS_P2;Temp;Humidity;BMP_temperature;BMP_pressure;BME280_temperature;BME280_humidity;BME280_pressure;Samples;Min_cycle;Max_cycle;Signal;HPM_P1;HPM_P2
2023/03/07 00:01:33;;;;;;;4.83;1.40;;;10.80;99.90;;;;;;5002384;28;20200;-69
2023/03/07 00:03:59;;;;;;;6.93;1.63;;;10.80;99.90;;;;;;5020838;28;20204;-69
2023/03/07 00:06:26;;;;;;;4.97;1.33;;;10.90;99.90;;;;;;5019582;28;20216;-69
2023/03/07 00:08:57;;;;;;;3.97;1.30;;;10.90;99.90;;;;;;5020258;28;20192;-69
2023/03/07 00:11:24;;;;;;;7.47;1.53;;;10.90;99.90;;;;;;5018190;28;21085;-69
2023/03/07 00:13:51;;;;;;;6.13;1.60;;;10.90;99.90;;;;;;5020763;28;20358;-69
2023/03/07 00:16:22;;;;;;;3.50;1.43;;;11.00;99.90;;;;;;4999849;28;20196;-69
2023/03/07 00:18:49;;;;;;;7.20;1.63;;;11.00;99.90;;;;;;5000332;28;20207;-69
2023/03/07 00:21:21;;;;;;;5.80;1.47;;;11.00;99.90;;;;;;5019217;28;20315;-69
2023/03/07 00:23:50;;;;;;;6.20;1.67;;;11.00;99.90;;;;;;5015710;28;20204;-70
2023/03/07 00:26:21;;;;;;;5.17;1.50;;;11.00;99.90;;;;;;5016871;28;20216;-69
2023/03/07 00:28:50;;;;;;;5.33;1.57;;;11.00;99.90;;;;;;5015990;28;20601;-69
2023/03/07 00:31:18;;;;;;;9.10;1.67;;;10.90;99.90;;;;;;5001817;28;20196;-69
2023/03/07 00:33:45;;;;;;;5.43;1.50;;;10.90;99.90;;;;;;4998330;28;20238;-69
2023/03/07 00:36:17;;;;;;;5.57;1.50;;;10.90;99.90;;;;;;5015174;28;20184;-69
2023/03/07 00:38:44;;;;;;;4.83;1.70;;;10.90;99.90;;;;;;4998371;28;20266;-69
2023/03/07 00:41:14;;;;;;;1.43;1.00;;;10.90;99.90;;;;;;5018413;28;20241;-69
2023/03/07 00:43:41;;;;;;;6.53;1.60;;;10.90;99.90;;;;;;5000353;28;20195;-69
2023/03/07 00:46:09;;;;;;;8.60;1.60;;;10.90;99.90;;;;;;5002948;28;20220;-69
2023/03/07 00:48:38;;;;;;;6.37;1.50;;;10.80;99.90;;;;;;4998524;28;20689;-70
2023/03/07 00:51:08;;;;;;;9.50;2.13;;;10.80;99.90;;;;;;4998880;28;20847;-69
2023/03/07 00:53:35;;;;;;;5.57;1.63;;;10.80;99.90;;;;;;5001965;28;20187;-69
2023/03/07 00:56:36;;;;;;;3.67;1.60;;;10.80;99.90;;;;;;5017659;28;20197;-69
2023/03/07 00:59:02;;;;;;;7.97;1.60;;;10.70;99.90;;;;;;5001601;28;20269;-69
2023/03/07 01:01:28;;;;;;;4.70;1.20;;;10.80;99.90;;;;;;5018059;28;20208;-69
2023/03/07 01:03:55;;;;;;;5.57;1.80;;;10.70;99.90;;;;;;5000177;28;20204;-69
2023/03/07 01:06:28;;;;;;;6.53;1.70;;;10.70;99.90;;;;;;5017466;28;20612;-69
2023/03/07 01:09:01;;;;;;;4.63;1.63;;;10.70;99.90;;;;;;5015171;28;20192;-69
2023/03/07 01:11:29;;;;;;;5.00;1.80;;;10.70;99.90;;;;;;5001304;28;20528;-69
2023/03/07 01:13:58;;;;;;;3.53;1.50;;;10.50;99.90;;;;;;5000918;28;20184;-70
2023/03/07 01:16:28;;;;;;;5.17;1.33;;;10.40;99.90;;;;;;5018583;28;20200;-69
2023/03/07 01:18:59;;;;;;;9.07;1.83;;;10.30;99.90;;;;;;4997353;28;20266;-69
2023/03/07 01:21:40;;;;;;;6.00;1.37;;;10.30;99.90;;;;;;4999700;28;20548;-69
2023/03/07 01:24:12;;;;;;;5.67;1.60;;;10.40;99.90;;;;;;5001446;28;20192;-69
2023/03/07 01:26:38;;;;;;;3.57;1.30;;;10.40;99.90;;;;;;5018637;28;20755;-70
2023/03/07 01:29:06;;;;;;;6.50;1.70;;;10.40;99.90;;;;;;4999582;28;20253;-70
2023/03/07 01:31:32;;;;;;;7.60;1.47;;;10.40;99.90;;;;;;5018596;28;20200;-69
2023/03/07 01:34:00;;;;;;;6.53;1.43;;;10.30;99.90;;;;;;5018192;28;20239;-70
2023/03/07 01:36:33;;;;;;;5.27;1.50;;;10.30;99.90;;;;;;5012533;28;20599;-69
2023/03/07 01:39:05;;;;;;;7.70;1.67;;;10.20;99.90;;;;;;5018181;28;20801;-70
2023/03/07 01:41:36;;;;;;;6.97;1.60;;;10.20;99.90;;;;;;5019801;28;20200;-69
2023/03/07 01:44:21;;;;;;;6.70;1.73;;;10.20;99.90;;;;;;5016264;28;20758;-69
2023/03/07 01:46:58;;;;;;;5.63;1.50;;;10.10;99.90;;;;;;5018172;28;20219;-69
2023/03/07 01:49:45;;;;;;;5.40;1.50;;;10.00;99.90;;;;;;4999296;28;20196;-70
2023/03/07 01:52:22;;;;;;;5.63;1.63;;;10.00;99.90;;;;;;4998361;28;20192;-69
2023/03/07 01:55:05;;;;;;;3.03;1.20;;;10.10;99.90;;;;;;5017073;28;20218;-70
2023/03/07 01:57:37;;;;;;;4.17;1.50;;;10.00;99.90;;;;;;5017581;28;20202;-69
2023/03/07 02:00:12;;;;;;;4.57;1.60;;;10.00;99.90;;;;;;5015127;28;20207;-69
2023/03/07 02:02:42;;;;;;;6.00;1.40;;;9.90;99.90;;;;;;5001289;28;20261;-69
2023/03/07 02:05:33;;;;;;;5.03;1.50;;;9.80;99.90;;;;;;5016664;28;20184;-69
2023/03/07 02:08:01;;;;;;;3.40;1.50;;;9.80;99.90;;;;;;4996439;28;20228;-69
2023/03/07 02:10:31;;;;;;;4.43;1.37;;;9.80;99.90;;;;;;4998053;28;20192;-69
2023/03/07 02:12:57;;;;;;;6.73;1.80;;;9.80;99.90;;;;;;5014842;28;20587;-69
2023/03/07 02:15:23;;;;;;;4.40;1.50;;;9.70;99.90;;;;;;5016519;28;20212;-69
2023/03/07 02:17:52;;;;;;;3.13;1.40;;;9.60;99.90;;;;;;5017482;28;20193;-69
2023/03/07 02:20:33;;;;;;;3.73;1.40;;;9.60;99.90;;;;;;5016257;28;20196;-69
2023/03/07 02:23:00;;;;;;;6.93;1.40;;;9.60;99.90;;;;;;5015575;28;20192;-69
2023/03/07 02:26:00;;;;;;;3.07;1.20;;;9.60;99.90;;;;;;4982939;28;20643;-69
2023/03/07 02:28:28;;;;;;;3.93;1.43;;;9.50;99.90;;;;;;5016093;28;20319;-72
2023/03/07 02:31:02;;;;;;;6.63;1.67;;;9.50;99.90;;;;;;5001992;28;20880;-72
2023/03/07 02:33:29;;;;;;;6.80;1.33;;;9.40;99.90;;;;;;5004557;28;20198;-72
2023/03/07 02:36:04;;;;;;;6.17;1.50;;;9.40;99.90;;;;;;5021954;28;20260;-72
2023/03/07 02:38:35;;;;;;;3.30;1.40;;;9.40;99.90;;;;;;5016835;28;20199;-72
2023/03/07 02:41:02;;;;;;;5.57;1.73;;;9.40;99.90;;;;;;5002560;28;20196;-72
2023/03/07 02:43:28;;;;;;;6.17;1.90;;;9.50;99.90;;;;;;5002917;28;20706;-72
2023/03/07 02:45:55;;;;;;;6.37;1.70;;;9.60;99.90;;;;;;5002710;28;20556;-69
2023/03/07 02:48:21;;;;;;;4.10;1.30;;;9.60;99.90;;;;;;5019503;28;20590;-69
2023/03/07 02:50:50;;;;;;;5.57;1.80;;;9.60;99.90;;;;;;5017104;28;20690;-70
2023/03/07 02:53:16;;;;;;;8.00;1.50;;;9.50;99.90;;;;;;5017543;28;20184;-69
2023/03/07 02:55:43;;;;;;;4.13;1.77;;;9.60;99.90;;;;;;5020395;28;20192;-70
2023/03/07 02:58:09;;;;;;;3.90;1.30;;;9.60;99.90;;;;;;5019662;28;20214;-69
2023/03/07 03:00:36;;;;;;;5.30;1.67;;;9.60;99.90;;;;;;5020053;28;20204;-70
2023/03/07 03:03:02;;;;;;;4.97;1.47;;;9.50;99.90;;;;;;5002315;28;20196;-69
2023/03/07 03:05:29;;;;;;;2.77;1.33;;;9.50;99.90;;;;;;5001956;28;20227;-69
2023/03/07 03:07:55;;;;;;;4.53;1.30;;;9.50;99.90;;;;;;4999933;28;20358;-69
2023/03/07 03:10:21;;;;;;;8.53;1.80;;;9.40;99.90;;;;;;5021081;28;20196;-69
2023/03/07 03:12:47;;;;;;;5.83;1.57;;;9.40;99.90;;;;;;5004699;28;20616;-69
2023/03/07 03:15:14;;;;;;;5.17;1.87;;;9.40;99.90;;;;;;5018239;28;20307;-69
2023/03/07 03:17:41;;;;;;;8.40;1.63;;;9.40;99.90;;;;;;5003521;28;20612;-70
2023/03/07 03:20:10;;;;;;;5.97;1.40;;;9.40;99.90;;;;;;5002161;28;20238;-69
2023/03/07 03:22:40;;;;;;;4.73;1.67;;;9.40;99.90;;;;;;5000298;28;20196;-70
2023/03/07 03:25:11;;;;;;;3.87;1.43;;;9.30;99.90;;;;;;5020342;28;20197;-69
2023/03/07 03:27:38;;;;;;;4.30;1.40;;;9.40;99.90;;;;;;5020749;28;20227;-72
2023/03/07 03:30:14;;;;;;;3.37;1.43;;;9.40;99.90;;;;;;5002632;28;20219;-72
2023/03/07 03:32:42;;;;;;;4.57;1.63;;;9.30;99.90;;;;;;5003340;28;20207;-70
2023/03/07 03:35:10;;;;;;;5.60;1.93;;;9.30;99.90;;;;;;5019709;28;20581;-70
2023/03/07 03:37:39;;;;;;;4.30;1.43;;;9.30;99.90;;;;;;5000382;28;20200;-70
2023/03/07 03:40:13;;;;;;;3.60;1.47;;;9.40;99.90;;;;;;5002032;28;20192;-70
2023/03/07 03:42:44;;;;;;;7.87;1.53;;;9.30;99.90;;;;;;5003780;28;20733;-71
2023/03/07 03:45:13;;;;;;;4.83;1.60;;;9.30;99.90;;;;;;5000861;28;21870;-70
2023/03/07 03:47:40;;;;;;;5.90;2.17;;;9.40;99.90;;;;;;5001106;28;20212;-70
2023/03/07 03:50:07;;;;;;;7.67;1.87;;;9.40;99.90;;;;;;5020417;28;20203;-70
2023/03/07 03:52:35;;;;;;;6.43;2.10;;;9.40;99.90;;;;;;5017512;28;20204;-70
2023/03/07 03:55:01;;;;;;;6.10;1.90;;;9.40;99.90;;;;;;5018403;28;20664;-70
2023/03/07 03:57:28;;;;;;;4.50;1.90;;;9.40;99.90;;;;;;5001772;28;20259;-71
2023/03/07 03:59:54;;;;;;;7.57;1.83;;;9.40;99.90;;;;;;5020190;28;20785;-70
2023/03/07 04:02:21;;;;;;;5.70;1.67;;;9.30;99.90;;;;;;5017961;28;20295;-70
2023/03/07 04:04:47;;;;;;;3.47;1.50;;;9.30;99.90;;;;;;5002330;28;20195;-70
2023/03/07 04:07:14;;;;;;;6.13;2.00;;;9.40;99.90;;;;;;5014115;28;20244;-70
2023/03/07 04:09:40;;;;;;;4.17;1.77;;;9.50;99.90;;;;;;5016474;28;20228;-70
2023/03/07 04:12:07;;;;;;;7.17;1.80;;;9.50;99.90;;;;;;5001974;28;20188;-70
2023/03/07 04:14:36;;;;;;;4.77;1.50;;;9.60;99.90;;;;;;5020135;28;20188;-71
2023/03/07 04:17:02;;;;;;;5.83;1.80;;;9.60;99.90;;;;;;4999537;28;20196;-70
2023/03/07 04:19:28;;;;;;;7.10;1.90;;;9.60;99.90;;;;;;5016072;28;20543;-70
2023/03/07 04:21:55;;;;;;;7.90;1.83;;;9.70;99.90;;;;;;4999967;28;20199;-70
2023/03/07 04:24:21;;;;;;;2.60;1.47;;;9.70;99.90;;;;;;5016715;28;20220;-70
2023/03/07 04:26:48;;;;;;;4.13;1.80;;;9.70;99.90;;;;;;5017795;28;20281;-70
2023/03/07 04:29:15;;;;;;;4.30;1.73;;;9.80;99.90;;;;;;5015300;28;20184;-71
2023/03/07 04:31:43;;;;;;;5.77;1.77;;;9.80;99.90;;;;;;5019466;28;20187;-70
2023/03/07 04:34:09;;;;;;;11.90;1.83;;;9.80;99.90;;;;;;5016311;28;20195;-71
2023/03/07 04:36:41;;;;;;;5.33;1.60;;;9.80;99.90;;;;;;5015372;28;20188;-70
2023/03/07 04:39:08;;;;;;;4.33;1.60;;;9.80;99.90;;;;;;4998398;28;20192;-71
2023/03/07 04:41:34;;;;;;;8.17;1.60;;;9.80;99.90;;;;;;4999224;28;20578;-70
2023/03/07 04:44:00;;;;;;;8.33;1.90;;;9.80;99.90;;;;;;5016988;28;20220;-70
2023/03/07 04:46:27;;;;;;;8.37;2.17;;;9.80;99.90;;;;;;5001497;28;20203;-70
2023/03/07 04:48:55;;;;;;;9.03;1.90;;;9.90;99.90;;;;;;4998913;28;20249;-70
2023/03/07 04:51:22;;;;;;;7.57;1.97;;;9.90;99.90;;;;;;5018770;28;20810;-70
2023/03/07 04:53:49;;;;;;;9.13;2.27;;;9.90;99.90;;;;;;5018356;28;20188;-70
2023/03/07 04:56:15;;;;;;;5.30;1.60;;;10.00;99.90;;;;;;4998712;28;20221;-70
2023/03/07 04:58:43;;;;;;;6.10;2.00;;;10.10;99.90;;;;;;5019178;28;20226;-70
2023/03/07 05:01:10;;;;;;;4.80;2.00;;;10.20;99.90;;;;;;4998198;28;20200;-70
2023/03/07 05:03:36;;;;;;;4.73;1.80;;;10.30;99.90;;;;;;4999384;28;20614;-71
2023/03/07 05:06:11;;;;;;;7.17;1.87;;;10.40;99.90;;;;;;5016917;28;20662;-70
2023/03/07 05:08:38;;;;;;;4.63;2.00;;;10.50;99.90;;;;;;5019127;28;20271;-70
2023/03/07 05:11:04;;;;;;;8.40;1.80;;;10.50;99.90;;;;;;5018830;28;20995;-70
2023/03/07 05:13:31;;;;;;;5.37;1.83;;;10.60;99.90;;;;;;5017848;28;20192;-70
2023/03/07 05:15:59;;;;;;;6.97;1.90;;;10.60;99.90;;;;;;4998720;28;20758;-70
2023/03/07 05:18:26;;;;;;;4.63;1.90;;;10.70;99.90;;;;;;5015197;28;20192;-70
2023/03/07 05:20:53;;;;;;;6.90;1.90;;;10.70;99.90;;;;;;5018810;28;20234;-70
2023/03/07 05:23:20;;;;;;;4.60;1.70;;;10.80;99.90;;;;;;5016569;28;20207;-71
2023/03/07 05:25:48;;;;;;;5.33;1.83;;;10.90;99.90;;;;;;5018843;28;20184;-71
2023/03/07 05:28:15;;;;;;;4.57;1.97;;;10.90;99.90;;;;;;4996228;28;20301;-71
2023/03/07 05:30:43;;;;;;;9.33;2.10;;;10.90;99.90;;;;;;5000211;28;20218;-71
2023/03/07 05:33:10;;;;;;;6.30;1.93;;;10.90;99.90;;;;;;5015403;28;20184;-70
2023/03/07 05:35:37;;;;;;;5.53;1.70;;;11.00;99.90;;;;;;5017532;28;20176;-71
2023/03/07 05:38:04;;;;;;;3.27;1.60;;;11.00;99.90;;;;;;4996702;28;20196;-71
2023/03/07 05:40:30;;;;;;;6.83;1.93;;;11.00;99.90;;;;;;4997633;28;20342;-70
2023/03/07 05:42:56;;;;;;;6.30;1.90;;;11.10;99.90;;;;;;5017100;28;20188;-70
2023/03/07 05:45:23;;;;;;;8.03;2.07;;;11.10;99.90;;;;;;5016373;28;20877;-71
2023/03/07 05:47:49;;;;;;;3.57;1.63;;;11.20;99.90;;;;;;4998352;28;20710;-71
2023/03/07 05:50:18;;;;;;;5.47;2.10;;;11.20;99.90;;;;;;5016495;28;22068;-70
2023/03/07 05:52:47;;;;;;;5.03;1.80;;;11.30;99.90;;;;;;5016387;28;20663;-71
2023/03/07 05:55:13;;;;;;;8.23;1.77;;;11.30;99.90;;;;;;5014180;28;20184;-70
2023/03/07 05:57:39;;;;;;;4.73;1.93;;;11.40;99.90;;;;;;5018217;28;20272;-71
2023/03/07 06:00:07;;;;;;;7.33;2.13;;;11.40;99.90;;;;;;4998401;28;20258;-70
2023/03/07 06:02:33;;;;;;;9.93;2.87;;;11.50;99.90;;;;;;4985051;28;20214;-70
2023/03/07 06:04:59;;;;;;;9.13;1.90;;;11.60;99.90;;;;;;5016970;28;20349;-70
2023/03/07 06:07:28;;;;;;;5.47;2.10;;;11.60;99.90;;;;;;5001486;28;20208;-70
2023/03/07 06:09:55;;;;;;;5.60;2.27;;;11.60;99.90;;;;;;5006025;28;20195;-71
2023/03/07 06:12:27;;;;;;;9.57;2.27;;;11.70;99.90;;;;;;5000141;28;20237;-70
2023/03/07 06:14:54;;;;;;;6.53;1.90;;;11.70;99.90;;;;;;5002264;28;20241;-70
2023/03/07 06:17:20;;;;;;;3.57;1.87;;;11.70;99.90;;;;;;5017431;28;20282;-70
2023/03/07 06:19:50;;;;;;;7.30;2.10;;;11.70;99.90;;;;;;5021258;28;20576;-70
2023/03/07 06:22:16;;;;;;;5.43;1.90;;;11.70;99.90;;;;;;4999239;28;20194;-70
2023/03/07 06:24:42;;;;;;;5.80;1.90;;;11.70;99.90;;;;;;5005149;28;20192;-70
2023/03/07 06:27:08;;;;;;;5.53;1.87;;;11.70;99.90;;;;;;5002065;28;20282;-70
2023/03/07 06:29:35;;;;;;;5.73;2.07;;;11.70;99.90;;;;;;5017963;28;20685;-71
2023/03/07 06:32:01;;;;;;;4.83;1.80;;;11.80;99.90;;;;;;5015719;28;20250;-70
2023/03/07 06:34:27;;;;;;;10.07;2.30;;;11.80;99.90;;;;;;5001798;28;20239;-70
2023/03/07 06:36:54;;;;;;;7.60;2.27;;;11.90;99.90;;;;;;5017481;28;20200;-71
2023/03/07 06:39:20;;;;;;;9.93;2.33;;;11.90;99.90;;;;;;5015553;28;20274;-70
2023/03/07 06:41:48;;;;;;;3.20;1.67;;;12.00;99.90;;;;;;5021982;28;20184;-71
2023/03/07 06:44:16;;;;;;;5.37;1.90;;;12.00;99.90;;;;;;5017444;28;20219;-70
2023/03/07 06:46:44;;;;;;;8.50;2.13;;;12.10;99.90;;;;;;5002375;28;20275;-70
2023/03/07 06:49:10;;;;;;;7.57;1.90;;;12.10;99.90;;;;;;5016177;28;20191;-70
2023/03/07 06:51:36;;;;;;;8.67;1.90;;;12.10;99.90;;;;;;5018899;28;20191;-70
2023/03/07 06:54:03;;;;;;;6.10;2.20;;;12.20;99.90;;;;;;5001621;28;20192;-71
2023/03/07 06:56:30;;;;;;;7.87;1.93;;;12.40;99.90;;;;;;5001399;28;20283;-71
2023/03/07 06:58:56;;;;;;;7.57;2.00;;;12.40;99.90;;;;;;5001488;28;20661;-71
2023/03/07 07:01:23;;;;;;;7.07;2.00;;;12.50;99.90;;;;;;5020049;28;20200;-70
2023/03/07 07:03:49;;;;;;;8.87;2.23;;;12.50;99.90;;;;;;5017721;28;20198;-70
2023/03/07 07:06:15;;;;;;;2.57;1.77;;;12.50;99.90;;;;;;5016763;28;20189;-70
2023/03/07 07:08:41;;;;;;;5.77;1.97;;;12.50;99.90;;;;;;5002425;28;20187;-70
2023/03/07 07:11:08;;;;;;;4.93;1.87;;;12.40;99.90;;;;;;5021609;28;20269;-70
2023/03/07 07:13:34;;;;;;;4.33;1.90;;;12.40;99.90;;;;;;5019126;28;20188;-70
2023/03/07 07:16:07;;;;;;;5.63;1.70;;;12.40;99.90;;;;;;5015930;28;20192;-71
2023/03/07 07:18:34;;;;;;;8.43;2.30;;;12.20;99.90;;;;;;5019709;28;20223;-70
2023/03/07 07:21:00;;;;;;;5.93;1.80;;;12.10;99.90;;;;;;5001156;28;20192;-70
2023/03/07 07:23:29;;;;;;;5.80;1.57;;;12.30;99.90;;;;;;5017086;28;20246;-70
2023/03/07 07:25:56;;;;;;;7.47;1.70;;;12.50;99.90;;;;;;5000419;28;20191;-70
2023/03/07 07:28:22;;;;;;;5.87;1.90;;;12.40;99.90;;;;;;5016120;28;20231;-71
2023/03/07 07:30:49;;;;;;;6.43;1.60;;;12.20;99.90;;;;;;4981266;28;20203;-70
2023/03/07 07:33:16;;;;;;;4.50;1.93;;;12.40;99.90;;;;;;5015223;28;20203;-70
2023/03/07 07:35:43;;;;;;;6.73;1.80;;;12.40;99.90;;;;;;5020403;28;20283;-70
2023/03/07 07:38:09;;;;;;;4.30;1.70;;;12.30;99.90;;;;;;5015582;28;20320;-70
2023/03/07 07:40:36;;;;;;;6.90;1.73;;;12.00;99.90;;;;;;5017157;28;20548;-70
2023/03/07 07:43:02;;;;;;;3.03;1.43;;;11.80;99.90;;;;;;5000303;28;20227;-70
2023/03/07 07:45:29;;;;;;;10.17;1.70;;;11.80;99.90;;;;;;5019089;28;20246;-70
2023/03/07 07:47:55;;;;;;;2.77;1.60;;;11.80;99.90;;;;;;4986062;28;20207;-70
2023/03/07 07:50:22;;;;;;;6.57;1.70;;;11.80;99.90;;;;;;5014835;28;20542;-70
2023/03/07 07:52:52;;;;;;;4.17;1.80;;;11.90;99.90;;;;;;5019288;28;20282;-70
2023/03/07 07:55:23;;;;;;;5.77;1.63;;;12.30;99.90;;;;;;5016946;28;20242;-72
2023/03/07 07:57:51;;;;;;;13.87;3.17;;;12.80;99.90;;;;;;5018101;28;20211;-72
2023/03/07 08:00:20;;;;;;;8.60;1.87;;;12.90;99.90;;;;;;4997400;28;20200;-72
2023/03/07 08:02:50;;;;;;;7.43;1.50;;;12.80;99.90;;;;;;5014361;28;20193;-72
2023/03/07 08:05:20;;;;;;;5.40;1.97;;;12.90;99.90;;;;;;5013313;28;20290;-72
2023/03/07 08:07:47;;;;;;;5.17;1.50;;;12.80;99.90;;;;;;4980788;28;20208;-72
2023/03/07 08:10:15;;;;;;;4.93;1.60;;;12.70;99.90;;;;;;5012884;28;20189;-72
2023/03/07 08:12:43;;;;;;;3.83;1.53;;;12.80;99.90;;;;;;5018533;28;20177;-72
2023/03/07 08:15:11;;;;;;;8.53;1.50;;;12.80;99.90;;;;;;4996926;28;20697;-72
2023/03/07 08:17:37;;;;;;;4.63;1.43;;;12.60;99.90;;;;;;5014123;28;20205;-72
2023/03/07 08:20:08;;;;;;;5.30;1.90;;;12.80;99.90;;;;;;5011055;28;20180;-72
2023/03/07 08:22:38;;;;;;;7.23;1.60;;;12.80;99.90;;;;;;5017900;28;20700;-72
2023/03/07 08:25:07;;;;;;;6.03;1.63;;;13.00;99.90;;;;;;4999707;28;20912;-72
2023/03/07 08:27:33;;;;;;;8.67;1.80;;;13.30;99.90;;;;;;5016189;28;20216;-72
2023/03/07 08:30:00;;;;;;;4.93;1.50;;;13.40;99.90;;;;;;5013547;28;20286;-72
2023/03/07 08:32:27;;;;;;;3.97;1.30;;;13.30;99.90;;;;;;5016132;28;20275;-72
2023/03/07 08:34:56;;;;;;;4.67;1.67;;;13.30;99.90;;;;;;5018116;28;20191;-72
2023/03/07 08:37:23;;;;;;;3.03;1.57;;;13.50;99.90;;;;;;5015348;28;21108;-72
2023/03/07 08:39:49;;;;;;;7.37;2.17;;;13.60;99.90;;;;;;4995661;28;20233;-72
2023/03/07 08:42:17;;;;;;;4.87;1.37;;;13.70;99.90;;;;;;4996810;28;20434;-72
2023/03/07 08:44:43;;;;;;;4.13;1.50;;;13.60;99.90;;;;;;5015482;28;20524;-72
2023/03/07 08:47:12;;;;;;;6.63;1.97;;;13.60;99.90;;;;;;5015341;28;20212;-72
2023/03/07 08:49:39;;;;;;;8.33;1.60;;;13.70;99.90;;;;;;5019189;28;20180;-72
2023/03/07 08:52:06;;;;;;;5.70;1.67;;;13.30;99.90;;;;;;5014255;28;20215;-72
2023/03/07 08:54:33;;;;;;;4.97;1.30;;;13.10;99.90;;;;;;5017935;28;20282;-72
2023/03/07 08:56:59;;;;;;;4.23;1.60;;;13.50;99.90;;;;;;5018980;28;20196;-72
2023/03/07 08:59:26;;;;;;;7.80;1.50;;;13.90;99.90;;;;;;4999567;28;20655;-72
2023/03/07 09:01:52;;;;;;;16.77;2.00;;;14.00;99.90;;;;;;4994156;28;20780;-72
2023/03/07 09:04:19;;;;;;;4.30;1.70;;;14.20;99.90;;;;;;4997223;28;21070;-72
2023/03/07 09:06:46;;;;;;;5.40;1.60;;;14.40;99.90;;;;;;5014266;28;20244;-72
2023/03/07 09:09:12;;;;;;;5.90;1.40;;;14.50;99.90;;;;;;5011524;28;20594;-72
2023/03/07 09:11:41;;;;;;;7.30;1.30;;;14.60;99.90;;;;;;4994904;28;20188;-72
2023/03/07 09:14:07;;;;;;;4.87;1.40;;;14.80;99.90;;;;;;4996568;28;20222;-72
2023/03/07 09:16:34;;;;;;;5.10;1.40;;;14.80;99.90;;;;;;5018795;28;20231;-72
2023/03/07 09:19:00;;;;;;;3.87;1.43;;;14.70;99.90;;;;;;4996640;28;20245;-72
2023/03/07 09:21:27;;;;;;;3.20;1.30;;;14.50;99.90;;;;;;5014151;28;20525;-72
2023/03/07 09:23:53;;;;;;;7.60;1.80;;;14.60;99.90;;;;;;4982097;28;20199;-72
2023/03/07 09:26:20;;;;;;;7.20;1.70;;;14.90;99.90;;;;;;5016349;28;20246;-72
2023/03/07 09:28:46;;;;;;;4.53;1.63;;;15.10;99.90;;;;;;4996118;28;20275;-72
2023/03/07 09:31:14;;;;;;;8.83;2.70;;;15.10;99.90;;;;;;5012956;28;20636;-72
2023/03/07 09:33:41;;;;;;;9.23;2.10;;;15.20;99.90;;;;;;5018771;28;20188;-72
2023/03/07 09:36:11;;;;;;;4.63;1.30;;;15.00;99.90;;;;;;5014039;28;20211;-72
2023/03/07 09:38:38;;;;;;;8.93;2.10;;;14.90;99.90;;;;;;4984428;28;20676;-72
2023/03/07 09:41:08;;;;;;;5.37;2.00;;;15.00;99.90;;;;;;5000547;28;20199;-72
2023/03/07 09:44:09;;;;;;;4.83;1.40;;;14.90;99.90;;;;;;5018237;28;20274;-72
2023/03/07 09:47:09;;;;;;;4.63;1.43;;;15.20;99.90;;;;;;4976955;28;20285;-72
2023/03/07 09:49:52;;;;;;;7.07;1.17;;;15.40;99.90;;;;;;5016001;28;20192;-72
2023/03/07 09:52:26;;;;;;;3.23;1.07;;;15.50;99.90;;;;;;5014911;28;20188;-72
2023/03/07 09:55:01;;;;;;;5.37;1.40;;;15.50;99.90;;;;;;5021276;28;20682;-72
2023/03/07 09:57:40;;;;;;;3.73;1.10;;;15.30;99.90;;;;;;5014558;28;20555;-72
2023/03/07 10:00:21;;;;;;;4.60;1.20;;;15.60;99.90;;;;;;5013453;28;20211;-72
2023/03/07 10:03:37;;;;;;;5.97;1.37;;;15.40;99.90;;;;;;5015493;28;20727;-72
2023/03/07 10:06:36;;;;;;;4.60;1.50;;;15.20;99.90;;;;;;4975771;28;20235;-72
2023/03/07 10:09:06;;;;;;;7.33;1.40;;;15.60;99.90;;;;;;4998346;28;20200;-71
2023/03/07 10:11:59;;;;;;;4.90;1.50;;;15.60;99.90;;;;;;5001704;28;20926;-72
2023/03/07 10:15:07;;;;;;;8.80;1.50;;;15.60;99.90;;;;;;4996905;28;20303;-72
2023/03/07 10:17:50;;;;;;;4.53;1.10;;;15.90;99.90;;;;;;5014436;28;20626;-72
2023/03/07 10:20:34;;;;;;;7.20;1.50;;;16.10;99.90;;;;;;5017643;28;20214;-72
2023/03/07 10:23:29;;;;;;;8.50;1.70;;;16.20;99.90;;;;;;5018485;28;20196;-72
2023/03/07 10:26:18;;;;;;;3.90;1.40;;;16.30;99.90;;;;;;5015197;28;20192;-72
2023/03/07 10:28:48;;;;;;;2.60;1.10;;;16.10;99.90;;;;;;5012686;28;20290;-72
2023/03/07 10:31:25;;;;;;;4.37;1.27;;;15.80;99.90;;;;;;4994562;28;20196;-72
2023/03/07 10:33:53;;;;;;;2.47;1.20;;;15.60;99.90;;;;;;4997597;28;20200;-72
2023/03/07 10:36:45;;;;;;;5.30;1.60;;;15.40;99.90;;;;;;4999262;28;20195;-72
2023/03/07 10:39:47;;;;;;;4.87;1.70;;;15.40;99.90;;;;;;5013811;28;20180;-72
2023/03/07 10:42:18;;;;;;;4.33;1.60;;;15.50;99.90;;;;;;4999308;28;20274;-72
2023/03/07 10:44:47;;;;;;;4.80;1.33;;;15.30;99.90;;;;;;5015272;28;20192;-72
2023/03/07 10:47:25;;;;;;;6.70;1.30;;;15.30;99.90;;;;;;4997975;28;20335;-72
2023/03/07 10:50:06;;;;;;;2.63;1.13;;;15.30;99.90;;;;;;5014313;28;20867;-72
2023/03/07 10:52:46;;;;;;;3.77;1.20;;;15.30;99.90;;;;;;5016345;28;20198;-72
2023/03/07 10:55:40;;;;;;;5.07;1.37;;;15.20;99.90;;;;;;5015584;28;20188;-72
2023/03/07 10:58:25;;;;;;;3.90;1.30;;;15.20;99.90;;;;;;4998763;28;20249;-72
2023/03/07 11:01:18;;;;;;;1.97;1.10;;;15.20;99.90;;;;;;5018806;28;20215;-72
2023/03/07 11:03:57;;;;;;;4.47;1.33;;;15.40;99.90;;;;;;5011249;28;20534;-72
2023/03/07 11:06:32;;;;;;;3.63;1.33;;;15.30;99.90;;;;;;5000682;28;20199;-72
2023/03/07 11:09:14;;;;;;;2.70;1.27;;;15.00;99.90;;;;;;5020482;28;20573;-72
2023/03/07 11:11:57;;;;;;;5.57;1.20;;;15.30;99.90;;;;;;4998126;28;20192;-72
2023/03/07 11:14:27;;;;;;;3.10;1.10;;;15.40;99.90;;;;;;5019631;28;20841;-72
2023/03/07 11:17:00;;;;;;;2.83;1.10;;;15.40;99.90;;;;;;5019240;28;20523;-72
2023/03/07 11:19:35;;;;;;;4.00;1.13;;;15.30;99.90;;;;;;5000780;28;20192;-72
2023/03/07 11:22:15;;;;;;;2.50;1.00;;;14.80;99.90;;;;;;5015959;28;20199;-72
2023/03/07 11:25:19;;;;;;;5.13;1.47;;;14.90;99.90;;;;;;5014394;28;20219;-72
2023/03/07 11:27:57;;;;;;;5.40;1.40;;;15.10;99.90;;;;;;5016686;28;20354;-72
2023/03/07 11:30:50;;;;;;;4.90;1.20;;;15.10;99.90;;;;;;5015226;28;22367;-72
2023/03/07 11:33:33;;;;;;;2.03;1.20;;;15.20;99.90;;;;;;4998584;28;20196;-72
2023/03/07 11:36:35;;;;;;;4.67;1.50;;;15.10;99.90;;;;;;5002456;28;20192;-72
2023/03/07 11:39:26;;;;;;;7.57;1.50;;;15.30;99.90;;;;;;4997994;28;20206;-72
2023/03/07 11:42:02;;;;;;;7.43;1.40;;;15.20;99.90;;;;;;4996714;28;20180;-72
2023/03/07 11:44:52;;;;;;;3.90;1.37;;;14.90;99.90;;;;;;5016012;28;20211;-72
2023/03/07 11:47:34;;;;;;;8.47;1.33;;;14.80;99.90;;;;;;5015406;28;20226;-72
2023/03/07 11:50:25;;;;;;;6.20;1.30;;;14.90;99.90;;;;;;5018493;28;20196;-72
2023/03/07 11:53:38;;;;;;;8.43;1.53;;;14.90;99.90;;;;;;5015236;28;20191;-72
2023/03/07 11:56:28;;;;;;;4.67;1.17;;;15.10;99.90;;;;;;4997516;28;20258;-72
2023/03/07 11:59:12;;;;;;;3.10;0.90;;;15.30;99.90;;;;;;5017014;28;20192;-72
2023/03/07 12:01:51;;;;;;;3.77;1.20;;;15.60;99.90;;;;;;5010949;28;20207;-72
2023/03/07 12:04:54;;;;;;;3.13;1.20;;;15.50;99.90;;;;;;5016504;28;20318;-72
2023/03/07 12:07:42;;;;;;;2.90;1.17;;;15.70;99.90;;;;;;5004943;28;20302;-72
2023/03/07 12:10:30;;;;;;;4.43;1.40;;;16.10;99.90;;;;;;5016701;28;20206;-73
2023/03/07 12:13:14;;;;;;;6.10;1.07;;;16.20;99.90;;;;;;5015064;28;20196;-72
2023/03/07 12:16:29;;;;;;;4.57;1.27;;;16.30;99.90;;;;;;5015509;28;20207;-72
2023/03/07 12:19:30;;;;;;;3.50;1.20;;;16.40;99.90;;;;;;4977022;28;20654;-72
2023/03/07 12:22:26;;;;;;;6.63;1.30;;;16.50;99.90;;;;;;5014443;28;20191;-72
2023/03/07 12:24:58;;;;;;;3.60;1.10;;;16.30;99.90;;;;;;5012624;28;20797;-72
2023/03/07 12:27:44;;;;;;;3.77;0.97;;;16.40;99.90;;;;;;5016928;28;20212;-72
2023/03/07 12:30:49;;;;;;;4.10;1.20;;;16.20;99.90;;;;;;4996885;28;20624;-72
2023/03/07 12:33:39;;;;;;;3.97;1.30;;;16.10;99.90;;;;;;5017362;28;20177;-73
2023/03/07 12:36:15;;;;;;;3.10;1.20;;;15.90;99.90;;;;;;5016575;28;20188;-72
2023/03/07 12:39:02;;;;;;;3.33;1.20;;;15.90;99.90;;;;;;5013069;28;20195;-72
2023/03/07 12:42:21;;;;;;;7.70;1.43;;;15.90;99.90;;;;;;4997666;28;22545;-72
2023/03/07 12:45:07;;;;;;;2.70;0.90;;;15.80;99.90;;;;;;4997012;28;20872;-72
2023/03/07 12:47:55;;;;;;;3.50;1.10;;;15.60;99.90;;;;;;4998952;28;20250;-72
2023/03/07 12:50:54;;;;;;;1.73;0.80;;;15.60;99.90;;;;;;5016646;28;20183;-72
2023/03/07 12:53:38;;;;;;;3.73;1.20;;;15.60;99.90;;;;;;5000450;28;20796;-72
2023/03/07 12:56:30;;;;;;;5.90;1.30;;;15.60;99.90;;;;;;4984999;28;20188;-72
2023/03/07 12:59:10;;;;;;;7.63;1.37;;;15.60;99.90;;;;;;5012430;28;20188;-72
2023/03/07 13:01:59;;;;;;;3.07;1.00;;;15.60;99.90;;;;;;4981842;28;20200;-72
2023/03/07 13:04:36;;;;;;;5.67;1.00;;;15.60;99.90;;;;;;4994400;28;20193;-73
2023/03/07 13:07:16;;;;;;;2.57;1.43;;;15.50;99.90;;;;;;4984421;28;20215;-72
2023/03/07 13:09:46;;;;;;;3.53;1.23;;;15.30;99.90;;;;;;5012611;28;20192;-72
2023/03/07 13:12:15;;;;;;;2.90;1.10;;;15.30;99.90;;;;;;5016552;28;20668;-73
2023/03/07 13:14:47;;;;;;;4.63;1.27;;;15.20;99.90;;;;;;5014236;28;20200;-73
2023/03/07 13:17:34;;;;;;;4.53;1.43;;;15.20;99.90;;;;;;5015869;28;20838;-72